Metar z pełnej godziny Komunikat METAR ze strony awiacja.imgw.pl Metar G00 EPMO METAR EPMO 190200Z VRB02KT CAVOK 15/13 Q1018 =